sensor_id;sensor_type;location;lat;lon;timestamp;P1;durP1;ratioP1;P2;durP2;ratioP2
56868;SDS011;42754;0.000;0.000;2022-10-22T00:01:49;14.20;;;6.45;;
56868;SDS011;42754;0.000;0.000;2022-10-22T00:04:16;14.57;;;6.22;;
56868;SDS011;42754;0.000;0.000;2022-10-22T00:06:42;10.48;;;5.60;;
56868;SDS011;42754;0.000;0.000;2022-10-22T00:09:10;12.20;;;5.93;;
56868;SDS011;42754;0.000;0.000;2022-10-22T00:11:36;12.23;;;6.65;;
56868;SDS011;42754;0.000;0.000;2022-10-22T00:14:02;15.35;;;6.85;;
56868;SDS011;42754;0.000;0.000;2022-10-22T00:16:28;12.30;;;5.90;;
56868;SDS011;42754;0.000;0.000;2022-10-22T00:18:55;11.68;;;6.15;;
56868;SDS011;42754;0.000;0.000;2022-10-22T00:21:21;13.45;;;6.75;;
56868;SDS011;42754;0.000;0.000;2022-10-22T00:23:47;11.88;;;7.05;;
56868;SDS011;42754;0.000;0.000;2022-10-22T00:26:13;12.20;;;5.18;;
56868;SDS011;42754;0.000;0.000;2022-10-22T00:28:39;13.15;;;6.43;;
56868;SDS011;42754;0.000;0.000;2022-10-22T00:31:05;13.32;;;6.88;;
56868;SDS011;42754;0.000;0.000;2022-10-22T00:33:32;13.82;;;6.93;;
56868;SDS011;42754;0.000;0.000;2022-10-22T00:35:58;13.63;;;6.40;;
56868;SDS011;42754;0.000;0.000;2022-10-22T00:38:25;15.43;;;7.55;;
56868;SDS011;42754;0.000;0.000;2022-10-22T00:40:51;12.77;;;6.78;;
56868;SDS011;42754;0.000;0.000;2022-10-22T00:43:17;19.00;;;8.13;;
56868;SDS011;42754;0.000;0.000;2022-10-22T00:45:44;14.52;;;7.18;;
56868;SDS011;42754;0.000;0.000;2022-10-22T00:48:11;13.50;;;6.68;;
56868;SDS011;42754;0.000;0.000;2022-10-22T00:50:49;12.25;;;6.90;;
56868;SDS011;42754;0.000;0.000;2022-10-22T00:53:20;14.75;;;7.32;;
56868;SDS011;42754;0.000;0.000;2022-10-22T00:55:46;18.48;;;7.90;;
56868;SDS011;42754;0.000;0.000;2022-10-22T00:58:13;20.08;;;7.03;;
56868;SDS011;42754;0.000;0.000;2022-10-22T01:00:40;19.23;;;7.45;;
56868;SDS011;42754;0.000;0.000;2022-10-22T01:03:06;19.85;;;8.70;;
56868;SDS011;42754;0.000;0.000;2022-10-22T01:05:38;15.93;;;8.05;;
56868;SDS011;42754;0.000;0.000;2022-10-22T01:10:53;15.50;;;7.88;;
56868;SDS011;42754;0.000;0.000;2022-10-22T01:18:51;17.05;;;8.63;;
56868;SDS011;42754;0.000;0.000;2022-10-22T01:21:32;17.10;;;8.38;;
56868;SDS011;42754;0.000;0.000;2022-10-22T01:24:10;15.05;;;8.57;;
56868;SDS011;42754;0.000;0.000;2022-10-22T01:29:25;16.15;;;9.43;;
56868;SDS011;42754;0.000;0.000;2022-10-22T01:31:57;17.85;;;9.13;;
56868;SDS011;42754;0.000;0.000;2022-10-22T01:34:24;18.05;;;9.77;;
56868;SDS011;42754;0.000;0.000;2022-10-22T01:36:50;17.52;;;9.70;;
56868;SDS011;42754;0.000;0.000;2022-10-22T01:39:17;19.65;;;10.77;;
56868;SDS011;42754;0.000;0.000;2022-10-22T01:41:44;20.30;;;10.20;;
56868;SDS011;42754;0.000;0.000;2022-10-22T01:49:38;30.02;;;10.65;;
56868;SDS011;42754;0.000;0.000;2022-10-22T01:54:46;20.05;;;10.23;;
56868;SDS011;42754;0.000;0.000;2022-10-22T01:59:58;24.15;;;9.27;;
56868;SDS011;42754;0.000;0.000;2022-10-22T02:02:32;22.83;;;10.27;;
56868;SDS011;42754;0.000;0.000;2022-10-22T02:07:30;16.90;;;8.63;;
56868;SDS011;42754;0.000;0.000;2022-10-22T02:09:57;19.23;;;9.07;;
56868;SDS011;42754;0.000;0.000;2022-10-22T02:12:24;20.48;;;9.70;;
56868;SDS011;42754;0.000;0.000;2022-10-22T02:14:51;22.40;;;10.15;;
56868;SDS011;42754;0.000;0.000;2022-10-22T02:17:19;18.90;;;9.95;;
56868;SDS011;42754;0.000;0.000;2022-10-22T02:19:53;17.52;;;9.18;;
56868;SDS011;42754;0.000;0.000;2022-10-22T02:22:21;19.48;;;8.77;;
56868;SDS011;42754;0.000;0.000;2022-10-22T02:24:47;18.48;;;8.48;;
56868;SDS011;42754;0.000;0.000;2022-10-22T02:32:14;18.88;;;9.82;;
56868;SDS011;42754;0.000;0.000;2022-10-22T02:34:41;18.45;;;9.40;;
56868;SDS011;42754;0.000;0.000;2022-10-22T02:37:07;21.42;;;10.27;;
56868;SDS011;42754;0.000;0.000;2022-10-22T02:39:34;15.88;;;8.88;;
56868;SDS011;42754;0.000;0.000;2022-10-22T02:42:01;22.77;;;11.80;;
56868;SDS011;42754;0.000;0.000;2022-10-22T02:44:27;22.85;;;10.50;;
56868;SDS011;42754;0.000;0.000;2022-10-22T02:46:53;21.42;;;9.52;;
56868;SDS011;42754;0.000;0.000;2022-10-22T02:49:19;22.48;;;11.07;;
56868;SDS011;42754;0.000;0.000;2022-10-22T02:51:45;18.25;;;10.02;;
56868;SDS011;42754;0.000;0.000;2022-10-22T02:54:11;21.50;;;9.88;;
56868;SDS011;42754;0.000;0.000;2022-10-22T02:56:37;26.67;;;11.52;;
56868;SDS011;42754;0.000;0.000;2022-10-22T02:59:04;23.67;;;10.98;;
56868;SDS011;42754;0.000;0.000;2022-10-22T03:01:30;23.05;;;10.50;;
56868;SDS011;42754;0.000;0.000;2022-10-22T03:03:56;25.77;;;10.05;;
56868;SDS011;42754;0.000;0.000;2022-10-22T03:06:22;27.20;;;10.77;;
56868;SDS011;42754;0.000;0.000;2022-10-22T03:08:48;27.10;;;12.52;;
56868;SDS011;42754;0.000;0.000;2022-10-22T03:11:14;22.02;;;10.75;;
56868;SDS011;42754;0.000;0.000;2022-10-22T03:13:40;20.08;;;11.02;;
56868;SDS011;42754;0.000;0.000;2022-10-22T03:16:06;20.67;;;10.30;;
56868;SDS011;42754;0.000;0.000;2022-10-22T03:18:32;28.10;;;13.15;;
56868;SDS011;42754;0.000;0.000;2022-10-22T03:21:00;21.40;;;10.50;;
56868;SDS011;42754;0.000;0.000;2022-10-22T03:23:26;21.98;;;10.15;;
56868;SDS011;42754;0.000;0.000;2022-10-22T03:25:52;19.90;;;11.10;;
56868;SDS011;42754;0.000;0.000;2022-10-22T03:28:18;19.73;;;10.35;;
56868;SDS011;42754;0.000;0.000;2022-10-22T03:30:45;26.75;;;11.00;;
56868;SDS011;42754;0.000;0.000;2022-10-22T03:33:10;18.27;;;9.75;;
56868;SDS011;42754;0.000;0.000;2022-10-22T03:35:39;26.02;;;11.35;;
56868;SDS011;42754;0.000;0.000;2022-10-22T03:38:05;21.10;;;11.98;;
56868;SDS011;42754;0.000;0.000;2022-10-22T03:40:31;22.85;;;11.82;;
56868;SDS011;42754;0.000;0.000;2022-10-22T03:42:57;25.52;;;10.80;;
56868;SDS011;42754;0.000;0.000;2022-10-22T03:45:23;21.40;;;10.90;;
56868;SDS011;42754;0.000;0.000;2022-10-22T03:47:49;23.52;;;11.27;;
56868;SDS011;42754;0.000;0.000;2022-10-22T03:50:15;17.98;;;9.90;;
56868;SDS011;42754;0.000;0.000;2022-10-22T03:52:41;16.33;;;9.05;;
56868;SDS011;42754;0.000;0.000;2022-10-22T03:55:07;21.10;;;9.38;;
56868;SDS011;42754;0.000;0.000;2022-10-22T03:57:33;18.92;;;9.85;;
56868;SDS011;42754;0.000;0.000;2022-10-22T03:59:59;23.58;;;10.10;;
56868;SDS011;42754;0.000;0.000;2022-10-22T04:02:27;21.88;;;11.13;;
56868;SDS011;42754;0.000;0.000;2022-10-22T04:04:52;27.25;;;10.95;;
56868;SDS011;42754;0.000;0.000;2022-10-22T04:07:19;22.60;;;9.45;;
56868;SDS011;42754;0.000;0.000;2022-10-22T04:09:45;19.23;;;10.52;;
56868;SDS011;42754;0.000;0.000;2022-10-22T04:12:11;22.40;;;10.38;;
56868;SDS011;42754;0.000;0.000;2022-10-22T04:14:37;21.23;;;9.07;;
56868;SDS011;42754;0.000;0.000;2022-10-22T04:17:03;23.25;;;10.90;;
56868;SDS011;42754;0.000;0.000;2022-10-22T04:19:29;18.52;;;9.40;;
56868;SDS011;42754;0.000;0.000;2022-10-22T04:21:58;20.33;;;9.45;;
56868;SDS011;42754;0.000;0.000;2022-10-22T04:24:25;16.63;;;9.98;;
56868;SDS011;42754;0.000;0.000;2022-10-22T04:26:54;19.67;;;10.50;;
56868;SDS011;42754;0.000;0.000;2022-10-22T04:29:20;20.35;;;10.80;;
56868;SDS011;42754;0.000;0.000;2022-10-22T04:31:46;23.25;;;10.50;;
56868;SDS011;42754;0.000;0.000;2022-10-22T04:34:12;19.58;;;9.50;;
56868;SDS011;42754;0.000;0.000;2022-10-22T04:36:38;23.35;;;10.65;;
56868;SDS011;42754;0.000;0.000;2022-10-22T04:39:04;22.25;;;9.73;;
56868;SDS011;42754;0.000;0.000;2022-10-22T04:41:33;24.48;;;10.90;;
56868;SDS011;42754;0.000;0.000;2022-10-22T04:43:59;24.38;;;11.43;;
56868;SDS011;42754;0.000;0.000;2022-10-22T04:46:28;25.42;;;11.32;;
56868;SDS011;42754;0.000;0.000;2022-10-22T04:48:54;23.73;;;10.80;;
56868;SDS011;42754;0.000;0.000;2022-10-22T04:51:21;21.45;;;10.05;;
56868;SDS011;42754;0.000;0.000;2022-10-22T04:53:48;23.83;;;11.68;;
56868;SDS011;42754;0.000;0.000;2022-10-22T04:56:21;35.00;;;13.68;;
56868;SDS011;42754;0.000;0.000;2022-10-22T04:58:52;28.77;;;12.18;;
56868;SDS011;42754;0.000;0.000;2022-10-22T05:01:23;30.20;;;12.88;;
56868;SDS011;42754;0.000;0.000;2022-10-22T05:03:50;27.15;;;12.15;;
56868;SDS011;42754;0.000;0.000;2022-10-22T05:06:17;23.75;;;10.50;;
56868;SDS011;42754;0.000;0.000;2022-10-22T05:08:45;23.40;;;10.68;;
56868;SDS011;42754;0.000;0.000;2022-10-22T05:11:15;22.08;;;10.50;;
56868;SDS011;42754;0.000;0.000;2022-10-22T05:13:42;21.90;;;10.07;;
56868;SDS011;42754;0.000;0.000;2022-10-22T05:16:08;24.05;;;10.90;;
56868;SDS011;42754;0.000;0.000;2022-10-22T05:18:35;30.42;;;10.63;;
56868;SDS011;42754;0.000;0.000;2022-10-22T05:21:02;23.48;;;10.45;;
56868;SDS011;42754;0.000;0.000;2022-10-22T05:23:28;20.80;;;10.02;;
56868;SDS011;42754;0.000;0.000;2022-10-22T05:25:54;29.48;;;9.85;;
56868;SDS011;42754;0.000;0.000;2022-10-22T05:28:20;18.83;;;9.63;;
56868;SDS011;42754;0.000;0.000;2022-10-22T05:30:53;21.70;;;9.63;;
56868;SDS011;42754;0.000;0.000;2022-10-22T05:33:19;22.13;;;9.38;;
56868;SDS011;42754;0.000;0.000;2022-10-22T05:35:46;19.27;;;8.55;;
56868;SDS011;42754;0.000;0.000;2022-10-22T05:38:13;25.85;;;9.70;;
56868;SDS011;42754;0.000;0.000;2022-10-22T05:40:39;21.27;;;7.80;;
56868;SDS011;42754;0.000;0.000;2022-10-22T05:43:08;18.30;;;9.57;;
56868;SDS011;42754;0.000;0.000;2022-10-22T05:45:38;24.70;;;8.55;;
56868;SDS011;42754;0.000;0.000;2022-10-22T05:48:04;19.38;;;8.27;;
56868;SDS011;42754;0.000;0.000;2022-10-22T05:50:34;19.90;;;8.80;;
56868;SDS011;42754;0.000;0.000;2022-10-22T05:53:00;20.27;;;8.18;;
56868;SDS011;42754;0.000;0.000;2022-10-22T05:55:26;16.23;;;7.45;;
56868;SDS011;42754;0.000;0.000;2022-10-22T05:57:52;20.58;;;8.70;;
56868;SDS011;42754;0.000;0.000;2022-10-22T06:00:18;21.30;;;8.13;;
56868;SDS011;42754;0.000;0.000;2022-10-22T06:02:47;17.55;;;7.38;;
56868;SDS011;42754;0.000;0.000;2022-10-22T06:05:14;18.40;;;8.50;;
56868;SDS011;42754;0.000;0.000;2022-10-22T06:07:40;18.90;;;8.35;;
56868;SDS011;42754;0.000;0.000;2022-10-22T06:10:08;21.25;;;7.47;;
56868;SDS011;42754;0.000;0.000;2022-10-22T06:12:34;20.67;;;7.78;;
56868;SDS011;42754;0.000;0.000;2022-10-22T06:15:00;14.48;;;7.20;;
56868;SDS011;42754;0.000;0.000;2022-10-22T06:17:26;20.98;;;8.13;;
56868;SDS011;42754;0.000;0.000;2022-10-22T06:19:54;16.23;;;8.13;;
56868;SDS011;42754;0.000;0.000;2022-10-22T06:22:20;15.32;;;8.35;;
56868;SDS011;42754;0.000;0.000;2022-10-22T06:24:45;16.02;;;7.70;;
56868;SDS011;42754;0.000;0.000;2022-10-22T06:27:12;22.20;;;7.93;;
56868;SDS011;42754;0.000;0.000;2022-10-22T06:29:40;20.00;;;7.72;;
56868;SDS011;42754;0.000;0.000;2022-10-22T06:32:06;25.02;;;7.97;;
56868;SDS011;42754;0.000;0.000;2022-10-22T06:34:35;20.35;;;9.32;;
56868;SDS011;42754;0.000;0.000;2022-10-22T06:37:01;19.27;;;7.70;;
56868;SDS011;42754;0.000;0.000;2022-10-22T06:39:27;17.05;;;8.10;;
56868;SDS011;42754;0.000;0.000;2022-10-22T06:41:53;20.65;;;8.77;;
56868;SDS011;42754;0.000;0.000;2022-10-22T06:44:19;21.60;;;8.80;;
56868;SDS011;42754;0.000;0.000;2022-10-22T06:46:48;22.67;;;8.25;;
56868;SDS011;42754;0.000;0.000;2022-10-22T06:49:14;18.65;;;8.35;;
56868;SDS011;42754;0.000;0.000;2022-10-22T06:51:41;13.13;;;7.25;;
56868;SDS011;42754;0.000;0.000;2022-10-22T06:54:07;18.02;;;8.10;;
56868;SDS011;42754;0.000;0.000;2022-10-22T06:56:33;19.70;;;8.02;;
56868;SDS011;42754;0.000;0.000;2022-10-22T06:58:59;20.73;;;8.13;;
56868;SDS011;42754;0.000;0.000;2022-10-22T07:01:26;17.35;;;7.15;;
56868;SDS011;42754;0.000;0.000;2022-10-22T07:03:53;16.45;;;7.40;;
56868;SDS011;42754;0.000;0.000;2022-10-22T07:06:20;15.90;;;7.70;;
56868;SDS011;42754;0.000;0.000;2022-10-22T07:08:46;22.73;;;9.30;;
56868;SDS011;42754;0.000;0.000;2022-10-22T07:11:14;33.08;;;14.75;;
56868;SDS011;42754;0.000;0.000;2022-10-22T07:13:40;47.65;;;29.23;;
56868;SDS011;42754;0.000;0.000;2022-10-22T07:16:07;28.42;;;14.75;;
56868;SDS011;42754;0.000;0.000;2022-10-22T07:18:33;27.65;;;16.38;;
56868;SDS011;42754;0.000;0.000;2022-10-22T07:21:00;23.25;;;11.65;;
56868;SDS011;42754;0.000;0.000;2022-10-22T07:23:26;29.73;;;16.30;;
56868;SDS011;42754;0.000;0.000;2022-10-22T07:25:52;20.60;;;12.00;;
56868;SDS011;42754;0.000;0.000;2022-10-22T07:28:18;41.63;;;25.05;;
56868;SDS011;42754;0.000;0.000;2022-10-22T07:30:44;22.00;;;11.07;;
56868;SDS011;42754;0.000;0.000;2022-10-22T07:33:11;21.98;;;12.18;;
56868;SDS011;42754;0.000;0.000;2022-10-22T07:35:37;23.63;;;12.55;;
56868;SDS011;42754;0.000;0.000;2022-10-22T07:38:04;21.20;;;10.30;;
56868;SDS011;42754;0.000;0.000;2022-10-22T07:40:30;23.23;;;12.25;;
56868;SDS011;42754;0.000;0.000;2022-10-22T07:42:56;18.55;;;9.63;;
56868;SDS011;42754;0.000;0.000;2022-10-22T07:45:22;29.17;;;14.52;;
56868;SDS011;42754;0.000;0.000;2022-10-22T07:47:48;25.25;;;10.43;;
56868;SDS011;42754;0.000;0.000;2022-10-22T07:50:15;41.60;;;23.70;;
56868;SDS011;42754;0.000;0.000;2022-10-22T07:52:41;21.08;;;12.02;;
56868;SDS011;42754;0.000;0.000;2022-10-22T07:55:08;22.58;;;10.55;;
56868;SDS011;42754;0.000;0.000;2022-10-22T07:57:34;20.80;;;11.15;;
56868;SDS011;42754;0.000;0.000;2022-10-22T08:00:02;16.85;;;8.43;;
56868;SDS011;42754;0.000;0.000;2022-10-22T08:02:28;19.40;;;8.40;;
56868;SDS011;42754;0.000;0.000;2022-10-22T08:04:54;10.25;;;5.45;;
56868;SDS011;42754;0.000;0.000;2022-10-22T08:07:21;25.05;;;6.25;;
56868;SDS011;42754;0.000;0.000;2022-10-22T08:09:47;14.95;;;6.18;;
56868;SDS011;42754;0.000;0.000;2022-10-22T08:12:13;16.67;;;5.32;;
56868;SDS011;42754;0.000;0.000;2022-10-22T08:14:39;11.73;;;5.63;;
56868;SDS011;42754;0.000;0.000;2022-10-22T08:17:05;9.88;;;4.50;;
56868;SDS011;42754;0.000;0.000;2022-10-22T08:19:32;12.73;;;4.43;;
56868;SDS011;42754;0.000;0.000;2022-10-22T08:21:59;11.07;;;3.65;;
56868;SDS011;42754;0.000;0.000;2022-10-22T08:24:25;15.07;;;4.78;;
56868;SDS011;42754;0.000;0.000;2022-10-22T08:26:54;14.20;;;4.47;;
56868;SDS011;42754;0.000;0.000;2022-10-22T08:29:21;8.43;;;3.17;;
56868;SDS011;42754;0.000;0.000;2022-10-22T08:31:47;8.98;;;2.30;;
56868;SDS011;42754;0.000;0.000;2022-10-22T08:34:13;9.98;;;2.83;;
56868;SDS011;42754;0.000;0.000;2022-10-22T08:36:39;9.32;;;3.00;;
56868;SDS011;42754;0.000;0.000;2022-10-22T08:39:05;7.75;;;3.05;;
56868;SDS011;42754;0.000;0.000;2022-10-22T08:41:33;14.95;;;3.03;;
56868;SDS011;42754;0.000;0.000;2022-10-22T08:49:02;10.15;;;2.25;;
56868;SDS011;42754;0.000;0.000;2022-10-22T08:51:33;6.50;;;2.17;;
56868;SDS011;42754;0.000;0.000;2022-10-22T08:54:17;10.37;;;2.40;;
56868;SDS011;42754;0.000;0.000;2022-10-22T08:56:46;9.38;;;3.33;;
56868;SDS011;42754;0.000;0.000;2022-10-22T09:01:42;10.77;;;3.28;;
56868;SDS011;42754;0.000;0.000;2022-10-22T09:07:13;11.38;;;3.03;;
56868;SDS011;42754;0.000;0.000;2022-10-22T09:09:41;9.82;;;2.70;;
56868;SDS011;42754;0.000;0.000;2022-10-22T09:12:13;8.70;;;2.60;;
56868;SDS011;42754;0.000;0.000;2022-10-22T09:14:40;10.35;;;2.97;;
56868;SDS011;42754;0.000;0.000;2022-10-22T09:20:08;10.75;;;2.88;;
56868;SDS011;42754;0.000;0.000;2022-10-22T09:25:22;7.07;;;2.17;;
56868;SDS011;42754;0.000;0.000;2022-10-22T09:27:48;8.52;;;2.17;;
56868;SDS011;42754;0.000;0.000;2022-10-22T09:30:18;9.52;;;2.38;;
56868;SDS011;42754;0.000;0.000;2022-10-22T09:32:44;11.63;;;2.80;;
56868;SDS011;42754;0.000;0.000;2022-10-22T09:35:12;10.77;;;2.70;;
56868;SDS011;42754;0.000;0.000;2022-10-22T09:37:46;10.52;;;2.90;;
56868;SDS011;42754;0.000;0.000;2022-10-22T09:40:12;8.35;;;2.75;;
56868;SDS011;42754;0.000;0.000;2022-10-22T09:42:39;7.75;;;2.03;;
56868;SDS011;42754;0.000;0.000;2022-10-22T09:45:05;6.53;;;1.80;;
56868;SDS011;42754;0.000;0.000;2022-10-22T09:47:39;9.00;;;2.67;;
56868;SDS011;42754;0.000;0.000;2022-10-22T09:53:03;9.88;;;2.78;;
56868;SDS011;42754;0.000;0.000;2022-10-22T09:55:30;12.07;;;2.88;;
56868;SDS011;42754;0.000;0.000;2022-10-22T09:57:57;9.05;;;3.25;;
56868;SDS011;42754;0.000;0.000;2022-10-22T10:00:25;10.50;;;2.92;;
56868;SDS011;42754;0.000;0.000;2022-10-22T10:02:55;9.45;;;2.92;;
56868;SDS011;42754;0.000;0.000;2022-10-22T10:05:28;9.77;;;2.97;;
56868;SDS011;42754;0.000;0.000;2022-10-22T10:07:55;9.50;;;3.25;;
56868;SDS011;42754;0.000;0.000;2022-10-22T10:13:02;9.73;;;2.70;;
56868;SDS011;42754;0.000;0.000;2022-10-22T10:20:59;11.45;;;2.90;;
56868;SDS011;42754;0.000;0.000;2022-10-22T10:23:34;15.95;;;3.03;;
56868;SDS011;42754;0.000;0.000;2022-10-22T10:31:41;12.57;;;2.50;;
56868;SDS011;42754;0.000;0.000;2022-10-22T10:34:13;7.28;;;2.83;;
56868;SDS011;42754;0.000;0.000;2022-10-22T10:39:11;8.70;;;3.28;;
56868;SDS011;42754;0.000;0.000;2022-10-22T10:41:50;10.02;;;3.75;;
56868;SDS011;42754;0.000;0.000;2022-10-22T10:49:25;8.90;;;3.08;;
56868;SDS011;42754;0.000;0.000;2022-10-22T10:52:11;10.05;;;2.63;;
56868;SDS011;42754;0.000;0.000;2022-10-22T10:59:58;10.35;;;2.83;;
56868;SDS011;42754;0.000;0.000;2022-10-22T11:08:13;8.75;;;3.42;;
56868;SDS011;42754;0.000;0.000;2022-10-22T11:15:38;7.13;;;4.10;;
56868;SDS011;42754;0.000;0.000;2022-10-22T11:18:16;13.13;;;3.47;;
56868;SDS011;42754;0.000;0.000;2022-10-22T11:20:45;6.93;;;2.60;;
56868;SDS011;42754;0.000;0.000;2022-10-22T11:23:17;12.75;;;3.80;;
56868;SDS011;42754;0.000;0.000;2022-10-22T11:25:48;7.78;;;2.40;;
56868;SDS011;42754;0.000;0.000;2022-10-22T11:30:49;9.57;;;3.13;;
56868;SDS011;42754;0.000;0.000;2022-10-22T11:33:18;11.90;;;3.10;;
56868;SDS011;42754;0.000;0.000;2022-10-22T11:35:46;8.55;;;3.45;;
56868;SDS011;42754;0.000;0.000;2022-10-22T11:38:17;10.35;;;2.50;;
56868;SDS011;42754;0.000;0.000;2022-10-22T11:41:01;11.52;;;3.22;;
56868;SDS011;42754;0.000;0.000;2022-10-22T11:48:40;7.30;;;2.83;;
56868;SDS011;42754;0.000;0.000;2022-10-22T11:51:28;9.30;;;2.53;;
56868;SDS011;42754;0.000;0.000;2022-10-22T11:53:56;6.57;;;2.40;;
56868;SDS011;42754;0.000;0.000;2022-10-22T11:56:24;8.35;;;2.95;;
56868;SDS011;42754;0.000;0.000;2022-10-22T11:58:50;4.43;;;1.90;;
56868;SDS011;42754;0.000;0.000;2022-10-22T12:01:22;7.70;;;2.20;;
56868;SDS011;42754;0.000;0.000;2022-10-22T12:03:50;12.23;;;2.23;;
56868;SDS011;42754;0.000;0.000;2022-10-22T12:06:18;13.57;;;2.70;;
56868;SDS011;42754;0.000;0.000;2022-10-22T12:11:16;10.00;;;2.05;;
56868;SDS011;42754;0.000;0.000;2022-10-22T12:16:24;11.23;;;1.70;;
56868;SDS011;42754;0.000;0.000;2022-10-22T12:18:54;6.25;;;2.28;;
56868;SDS011;42754;0.000;0.000;2022-10-22T12:21:21;11.45;;;1.83;;
56868;SDS011;42754;0.000;0.000;2022-10-22T12:23:47;9.93;;;2.15;;
56868;SDS011;42754;0.000;0.000;2022-10-22T12:26:22;6.57;;;1.77;;
56868;SDS011;42754;0.000;0.000;2022-10-22T12:28:48;4.40;;;1.77;;
56868;SDS011;42754;0.000;0.000;2022-10-22T12:31:15;9.98;;;2.97;;
56868;SDS011;42754;0.000;0.000;2022-10-22T12:33:41;10.60;;;2.17;;
56868;SDS011;42754;0.000;0.000;2022-10-22T12:36:14;9.23;;;1.80;;
56868;SDS011;42754;0.000;0.000;2022-10-22T12:38:41;6.75;;;2.03;;
56868;SDS011;42754;0.000;0.000;2022-10-22T12:41:11;11.27;;;2.15;;
56868;SDS011;42754;0.000;0.000;2022-10-22T12:43:37;13.65;;;2.05;;
56868;SDS011;42754;0.000;0.000;2022-10-22T12:46:04;8.70;;;1.65;;
56868;SDS011;42754;0.000;0.000;2022-10-22T12:48:31;4.50;;;1.55;;
56868;SDS011;42754;0.000;0.000;2022-10-22T12:50:59;9.77;;;2.58;;
56868;SDS011;42754;0.000;0.000;2022-10-22T12:53:30;9.88;;;2.40;;
56868;SDS011;42754;0.000;0.000;2022-10-22T12:55:59;10.43;;;2.15;;
56868;SDS011;42754;0.000;0.000;2022-10-22T12:58:26;8.30;;;2.22;;
56868;SDS011;42754;0.000;0.000;2022-10-22T13:00:56;8.82;;;1.75;;
56868;SDS011;42754;0.000;0.000;2022-10-22T13:05:52;9.90;;;2.75;;
56868;SDS011;42754;0.000;0.000;2022-10-22T13:08:20;9.93;;;2.20;;
56868;SDS011;42754;0.000;0.000;2022-10-22T13:10:50;9.88;;;1.95;;
56868;SDS011;42754;0.000;0.000;2022-10-22T13:18:45;9.85;;;1.85;;
56868;SDS011;42754;0.000;0.000;2022-10-22T13:21:28;8.10;;;1.65;;
56868;SDS011;42754;0.000;0.000;2022-10-22T13:23:56;11.93;;;2.75;;
56868;SDS011;42754;0.000;0.000;2022-10-22T13:26:22;11.57;;;1.60;;
56868;SDS011;42754;0.000;0.000;2022-10-22T13:28:50;12.88;;;1.88;;
56868;SDS011;42754;0.000;0.000;2022-10-22T13:31:17;9.55;;;1.77;;
56868;SDS011;42754;0.000;0.000;2022-10-22T13:33:44;13.15;;;3.15;;
56868;SDS011;42754;0.000;0.000;2022-10-22T13:36:12;13.18;;;1.70;;
56868;SDS011;42754;0.000;0.000;2022-10-22T13:38:38;10.10;;;2.10;;
56868;SDS011;42754;0.000;0.000;2022-10-22T13:41:16;12.38;;;2.50;;
56868;SDS011;42754;0.000;0.000;2022-10-22T13:43:43;10.95;;;1.85;;
56868;SDS011;42754;0.000;0.000;2022-10-22T13:46:10;6.80;;;1.75;;
56868;SDS011;42754;0.000;0.000;2022-10-22T13:48:36;7.97;;;1.77;;
56868;SDS011;42754;0.000;0.000;2022-10-22T13:51:03;9.02;;;1.60;;
56868;SDS011;42754;0.000;0.000;2022-10-22T13:53:29;8.65;;;1.90;;
56868;SDS011;42754;0.000;0.000;2022-10-22T13:55:55;10.15;;;1.80;;
56868;SDS011;42754;0.000;0.000;2022-10-22T13:58:22;9.07;;;1.85;;
56868;SDS011;42754;0.000;0.000;2022-10-22T14:00:52;10.85;;;2.15;;
56868;SDS011;42754;0.000;0.000;2022-10-22T14:03:23;11.10;;;1.88;;
56868;SDS011;42754;0.000;0.000;2022-10-22T14:05:50;11.38;;;1.88;;
56868;SDS011;42754;0.000;0.000;2022-10-22T14:08:20;8.98;;;2.25;;
56868;SDS011;42754;0.000;0.000;2022-10-22T14:10:47;12.15;;;3.00;;
56868;SDS011;42754;0.000;0.000;2022-10-22T14:13:14;6.97;;;1.90;;
56868;SDS011;42754;0.000;0.000;2022-10-22T14:15:40;22.83;;;2.30;;
56868;SDS011;42754;0.000;0.000;2022-10-22T14:18:07;6.85;;;1.92;;
56868;SDS011;42754;0.000;0.000;2022-10-22T14:20:36;15.50;;;2.67;;
56868;SDS011;42754;0.000;0.000;2022-10-22T14:23:13;9.23;;;2.38;;
56868;SDS011;42754;0.000;0.000;2022-10-22T14:25:40;8.98;;;2.28;;
56868;SDS011;42754;0.000;0.000;2022-10-22T14:28:07;10.80;;;2.03;;
56868;SDS011;42754;0.000;0.000;2022-10-22T14:30:34;12.02;;;3.22;;
56868;SDS011;42754;0.000;0.000;2022-10-22T14:33:00;16.15;;;2.53;;
56868;SDS011;42754;0.000;0.000;2022-10-22T14:35:26;8.63;;;2.35;;
56868;SDS011;42754;0.000;0.000;2022-10-22T14:37:52;9.70;;;2.22;;
56868;SDS011;42754;0.000;0.000;2022-10-22T14:40:18;8.88;;;2.20;;
56868;SDS011;42754;0.000;0.000;2022-10-22T14:42:46;8.73;;;2.22;;
56868;SDS011;42754;0.000;0.000;2022-10-22T14:45:22;14.70;;;2.50;;
56868;SDS011;42754;0.000;0.000;2022-10-22T14:47:50;9.18;;;2.20;;
56868;SDS011;42754;0.000;0.000;2022-10-22T14:50:19;7.95;;;2.47;;
56868;SDS011;42754;0.000;0.000;2022-10-22T14:52:45;15.02;;;2.75;;
56868;SDS011;42754;0.000;0.000;2022-10-22T14:55:11;13.80;;;3.92;;
56868;SDS011;42754;0.000;0.000;2022-10-22T14:57:39;12.57;;;2.40;;
56868;SDS011;42754;0.000;0.000;2022-10-22T15:00:06;13.30;;;2.60;;
56868;SDS011;42754;0.000;0.000;2022-10-22T15:02:33;19.33;;;2.83;;
56868;SDS011;42754;0.000;0.000;2022-10-22T15:04:59;10.93;;;2.47;;
56868;SDS011;42754;0.000;0.000;2022-10-22T15:07:25;14.50;;;2.63;;
56868;SDS011;42754;0.000;0.000;2022-10-22T15:09:51;22.55;;;3.58;;
56868;SDS011;42754;0.000;0.000;2022-10-22T15:12:17;31.25;;;3.63;;
56868;SDS011;42754;0.000;0.000;2022-10-22T15:14:45;8.40;;;2.80;;
56868;SDS011;42754;0.000;0.000;2022-10-22T15:17:11;15.65;;;3.13;;
56868;SDS011;42754;0.000;0.000;2022-10-22T15:19:37;14.48;;;2.72;;
56868;SDS011;42754;0.000;0.000;2022-10-22T15:22:03;19.95;;;4.38;;
56868;SDS011;42754;0.000;0.000;2022-10-22T15:24:30;9.82;;;2.83;;
56868;SDS011;42754;0.000;0.000;2022-10-22T15:26:56;8.27;;;2.58;;
56868;SDS011;42754;0.000;0.000;2022-10-22T15:29:22;12.68;;;3.30;;
56868;SDS011;42754;0.000;0.000;2022-10-22T15:31:53;12.43;;;2.60;;
56868;SDS011;42754;0.000;0.000;2022-10-22T15:34:42;10.50;;;2.60;;
56868;SDS011;42754;0.000;0.000;2022-10-22T15:37:09;18.08;;;2.90;;
56868;SDS011;42754;0.000;0.000;2022-10-22T15:39:40;19.20;;;3.60;;
56868;SDS011;42754;0.000;0.000;2022-10-22T15:42:06;12.30;;;3.35;;
56868;SDS011;42754;0.000;0.000;2022-10-22T15:44:32;15.00;;;3.03;;
56868;SDS011;42754;0.000;0.000;2022-10-22T15:46:59;12.63;;;3.22;;
56868;SDS011;42754;0.000;0.000;2022-10-22T15:49:27;16.33;;;2.90;;
56868;SDS011;42754;0.000;0.000;2022-10-22T15:51:53;13.02;;;3.78;;
56868;SDS011;42754;0.000;0.000;2022-10-22T15:54:21;9.23;;;3.22;;
56868;SDS011;42754;0.000;0.000;2022-10-22T15:56:47;18.15;;;3.42;;
56868;SDS011;42754;0.000;0.000;2022-10-22T15:59:14;20.00;;;4.22;;
56868;SDS011;42754;0.000;0.000;2022-10-22T16:01:40;21.30;;;3.95;;
56868;SDS011;42754;0.000;0.000;2022-10-22T16:04:07;15.48;;;3.15;;
56868;SDS011;42754;0.000;0.000;2022-10-22T16:06:38;14.70;;;2.55;;
56868;SDS011;42754;0.000;0.000;2022-10-22T16:09:05;16.63;;;3.40;;
56868;SDS011;42754;0.000;0.000;2022-10-22T16:11:35;13.98;;;3.08;;
56868;SDS011;42754;0.000;0.000;2022-10-22T16:14:01;9.77;;;3.38;;
56868;SDS011;42754;0.000;0.000;2022-10-22T16:16:31;22.55;;;4.07;;
56868;SDS011;42754;0.000;0.000;2022-10-22T16:18:57;11.20;;;3.58;;
56868;SDS011;42754;0.000;0.000;2022-10-22T16:21:23;18.08;;;4.13;;
56868;SDS011;42754;0.000;0.000;2022-10-22T16:23:50;12.00;;;3.42;;
56868;SDS011;42754;0.000;0.000;2022-10-22T16:26:17;12.15;;;3.53;;
56868;SDS011;42754;0.000;0.000;2022-10-22T16:28:44;18.08;;;4.70;;
56868;SDS011;42754;0.000;0.000;2022-10-22T16:31:11;11.00;;;3.35;;
56868;SDS011;42754;0.000;0.000;2022-10-22T16:33:38;18.65;;;3.88;;
56868;SDS011;42754;0.000;0.000;2022-10-22T16:36:04;17.05;;;3.75;;
56868;SDS011;42754;0.000;0.000;2022-10-22T16:38:31;16.95;;;3.15;;